Time;durP1;ratioP1;P1;durP2;ratioP2;P2;SDS_P1;SDS_P2;PMS_P1;PMS_P2;Temp;Humidity;BMP_temperature;BMP_pressure;BME280_temperature;BME280_humidity;BME280_pressure;Samples;Min_cycle;Max_cycle;Signal;HPM_P1;HPM_P2
2022/01/15 00:01:16;;;;;;;23.97;12.73;;;-1.70;99.90;;;;;;4953178;28;20181;-83
2022/01/15 00:03:43;;;;;;;28.70;13.23;;;-1.80;99.90;;;;;;4948655;28;20201;-85
2022/01/15 00:06:08;;;;;;;28.70;15.70;;;-1.80;99.90;;;;;;4951002;28;20577;-86
2022/01/15 00:08:34;;;;;;;38.17;17.67;;;-1.80;99.90;;;;;;4952389;28;20188;-87
2022/01/15 00:11:00;;;;;;;46.60;19.80;;;;;;;;;;4948626;28;20215;-87
2022/01/15 00:13:29;;;;;;;159.00;33.53;;;-1.70;99.90;;;;;;4949111;28;20217;-84
2022/01/15 00:16:06;;;;;;;218.02;35.67;;;-1.60;99.90;;;;;;4944392;28;20436;-86
2022/01/15 00:18:47;;;;;;;395.20;52.50;;;-1.60;99.90;;;;;;4960704;28;20184;-85
2022/01/15 00:21:14;;;;;;;177.15;36.08;;;-1.50;99.90;;;;;;4952100;28;20169;-88
2022/01/15 00:23:40;;;;;;;212.88;37.67;;;-1.50;99.90;;;;;;4948949;28;20200;-88
2022/01/15 00:26:06;;;;;;;264.65;42.83;;;-1.40;99.90;;;;;;4946302;28;20676;-84
2022/01/15 00:28:32;;;;;;;304.63;41.30;;;-1.40;99.90;;;;;;4943865;28;20205;-84
2022/01/15 00:30:58;;;;;;;289.67;44.30;;;;;;;;;;4952952;28;20273;-87
2022/01/15 00:33:25;;;;;;;155.82;40.67;;;-1.40;99.90;;;;;;4949400;28;21113;-87
2022/01/15 00:35:52;;;;;;;166.25;42.67;;;-1.30;99.90;;;;;;4951691;28;20222;-86
2022/01/15 00:38:18;;;;;;;297.33;53.35;;;-1.30;99.90;;;;;;4947961;28;20200;-87
2022/01/15 00:40:43;;;;;;;172.27;46.00;;;-1.10;99.90;;;;;;4956688;28;20169;-87
2022/01/15 00:43:09;;;;;;;254.50;52.47;;;-1.00;99.90;;;;;;4957546;28;20755;-85
2022/01/15 00:45:34;;;;;;;142.07;42.20;;;-1.00;99.90;;;;;;4952440;28;20242;-85
2022/01/15 00:48:02;;;;;;;96.13;33.13;;;;;;;;;;4955313;28;20207;-89
2022/01/15 00:50:28;;;;;;;97.20;36.38;;;-0.90;99.90;;;;;;4963683;28;20283;-88
2022/01/15 00:52:53;;;;;;;83.60;32.30;;;-1.10;99.90;;;;;;4950782;28;20641;-86
2022/01/15 00:55:19;;;;;;;184.47;42.83;;;-1.10;99.90;;;;;;4965569;28;20177;-87
2022/01/15 00:57:46;;;;;;;132.60;37.92;;;-1.00;99.90;;;;;;4966319;28;20200;-88
2022/01/15 01:00:17;;;;;;;164.25;44.45;;;-0.90;99.90;;;;;;4948687;28;20195;-85
2022/01/15 01:02:43;;;;;;;136.93;40.53;;;-0.90;99.90;;;;;;4951117;28;20263;-86
2022/01/15 01:05:10;;;;;;;102.23;35.97;;;-0.90;99.90;;;;;;4950396;28;20203;-86
2022/01/15 01:07:36;;;;;;;161.82;42.70;;;-0.80;99.90;;;;;;4955330;28;20500;-89
2022/01/15 01:10:29;;;;;;;119.70;43.60;;;-0.70;99.90;;;;;;4982385;22;20265;-86
2022/01/15 01:13:14;;;;;;;269.33;51.20;;;-0.70;99.90;;;;;;4988152;28;20462;-87
2022/01/15 01:23:51;;;;;;;258.92;46.53;;;-1.20;99.90;;;;;;4965724;28;20208;-85
2022/01/15 01:26:28;;;;;;;228.60;42.33;;;-1.20;99.90;;;;;;4961093;28;20188;-86
2022/01/15 01:29:26;;;;;;;155.73;39.45;;;-1.30;99.90;;;;;;4956856;28;20206;-86
2022/01/15 01:34:18;;;;;;;78.15;28.98;;;-1.60;99.90;;;;;;4963448;28;20204;-85
2022/01/15 01:36:55;;;;;;;115.47;32.67;;;;;;;;;;4959445;28;20210;-87
2022/01/15 01:39:22;;;;;;;107.28;34.15;;;-1.80;99.90;;;;;;4956093;28;20467;-86
2022/01/15 01:42:06;;;;;;;100.30;35.40;;;;;;;;;;4974029;28;20179;-84
2022/01/15 01:44:38;;;;;;;60.45;30.00;;;;;;;;;;4965892;28;20196;-86
2022/01/15 01:47:10;;;;;;;119.45;34.72;;;-2.10;99.90;;;;;;4973703;28;20201;-84
2022/01/15 01:49:36;;;;;;;381.20;59.05;;;;;;;;;;4969109;28;20313;-85
2022/01/15 01:52:02;;;;;;;282.52;45.28;;;;;;;;;;4971294;28;20251;-84
2022/01/15 01:54:28;;;;;;;251.25;44.22;;;;;;;;;;4964971;28;20204;-85
2022/01/15 01:56:54;;;;;;;137.20;34.57;;;;;;;;;;4964374;28;20275;-87
2022/01/15 01:59:21;;;;;;;92.70;32.90;;;;;;;;;;4961488;28;20455;-86
2022/01/15 02:01:46;;;;;;;100.25;34.47;;;-1.60;99.90;;;;;;4957952;28;20431;-85
2022/01/15 02:04:12;;;;;;;103.73;35.90;;;;;;;;;;4957650;28;20225;-86
2022/01/15 02:06:39;;;;;;;92.30;35.42;;;-1.30;99.90;;;;;;4947955;28;20439;-86
2022/01/15 02:09:06;;;;;;;90.88;32.70;;;-1.30;99.90;;;;;;4957520;28;20192;-86
2022/01/15 02:11:31;;;;;;;73.57;35.22;;;-1.30;99.90;;;;;;4962828;28;20191;-86
2022/01/15 02:13:57;;;;;;;90.90;33.90;;;;;;;;;;4964911;28;20280;-86
2022/01/15 02:16:23;;;;;;;131.27;39.38;;;-1.40;99.90;;;;;;4962618;28;20195;-86
2022/01/15 02:18:53;;;;;;;95.23;35.43;;;-1.40;99.90;;;;;;4965991;28;20208;-87
2022/01/15 02:23:50;;;;;;;75.40;34.03;;;-1.20;99.90;;;;;;4963585;28;20212;-87
2022/01/15 02:26:23;;;;;;;80.55;33.78;;;-1.10;99.90;;;;;;4959208;28;20934;-85
2022/01/15 02:28:55;;;;;;;284.88;44.03;;;-1.10;99.90;;;;;;4959000;28;20180;-86
2022/01/15 02:31:23;;;;;;;155.18;37.47;;;-1.10;99.90;;;;;;4961446;28;20184;-86
2022/01/15 02:33:50;;;;;;;196.35;41.47;;;-1.00;99.90;;;;;;4966642;28;20211;-88
2022/01/15 02:36:17;;;;;;;184.68;38.30;;;-0.90;99.90;;;;;;4961336;28;20213;-84
2022/01/15 02:38:44;;;;;;;184.32;41.03;;;;;;;;;;4960876;28;20867;-85
2022/01/15 02:41:10;;;;;;;270.42;47.25;;;;;;;;;;4960342;28;20559;-87
2022/01/15 02:43:36;;;;;;;110.28;37.22;;;-1.00;99.90;;;;;;4959644;28;20212;-87
2022/01/15 02:46:23;;;;;;;114.72;34.63;;;-1.10;99.90;;;;;;4963041;28;20296;-85
2022/01/15 02:48:54;;;;;;;111.78;33.80;;;-1.40;99.90;;;;;;4956771;28;20242;-86
2022/01/15 02:51:22;;;;;;;178.40;41.67;;;-0.10;99.90;;;;;;4963057;28;20270;-87
2022/01/15 02:53:55;;;;;;;137.02;38.42;;;;;;;;;;4956022;28;20211;-86
2022/01/15 02:56:45;;;;;;;276.25;44.28;;;-1.60;99.90;;;;;;4963308;28;20183;-85
2022/01/15 02:59:18;;;;;;;132.98;38.90;;;-1.70;99.90;;;;;;4964774;28;20240;-87
2022/01/15 03:01:43;;;;;;;138.18;37.13;;;-1.50;99.90;;;;;;4975287;28;20295;-85
2022/01/15 03:04:09;;;;;;;275.87;47.43;;;-1.40;99.90;;;;;;4954200;28;20259;-84
2022/01/15 03:06:35;;;;;;;203.70;43.03;;;;;;;;;;4963389;28;21101;-87
2022/01/15 03:09:01;;;;;;;205.10;41.67;;;-1.30;99.90;;;;;;4969461;28;20198;-83
2022/01/15 03:11:28;;;;;;;116.67;38.57;;;;;;;;;;4957294;28;20453;-84
2022/01/15 03:13:54;;;;;;;299.65;47.40;;;;;;;;;;4954694;28;20219;-88
2022/01/15 03:16:21;;;;;;;314.60;52.08;;;-1.00;99.90;;;;;;4959144;28;20554;-85
2022/01/15 03:18:47;;;;;;;380.58;55.80;;;;;;;;;;4958759;28;20261;-86
2022/01/15 03:21:13;;;;;;;205.48;40.05;;;;;;;;;;4964963;28;20187;-86
2022/01/15 03:23:40;;;;;;;261.95;45.47;;;;;;;;;;4961952;28;20207;-87
2022/01/15 03:26:07;;;;;;;393.23;53.10;;;;;;;;;;4961690;28;20180;-84
2022/01/15 03:28:33;;;;;;;402.67;55.95;;;;;;;;;;4955525;28;20188;-87
2022/01/15 03:30:59;;;;;;;185.75;39.05;;;-0.90;99.90;;;;;;4957153;28;20222;-87
2022/01/15 03:33:25;;;;;;;177.67;39.67;;;;;;;;;;4964739;28;20267;-87
2022/01/15 03:35:51;;;;;;;203.43;39.53;;;-1.20;99.90;;;;;;4958518;28;20551;-84
2022/01/15 03:38:17;;;;;;;183.63;43.80;;;;;;;;;;4954823;28;20466;-87
2022/01/15 03:40:43;;;;;;;162.37;40.33;;;;;;;;;;4963892;28;20183;-85
2022/01/15 03:43:08;;;;;;;202.40;44.63;;;;;;;;;;4963862;28;20435;-85
2022/01/15 03:45:34;;;;;;;180.00;39.90;;;;;;;;;;4970556;28;20560;-85
2022/01/15 03:48:00;;;;;;;179.30;38.47;;;-0.90;99.90;;;;;;4970110;28;21062;-87
2022/01/15 03:50:27;;;;;;;118.23;38.83;;;-0.80;99.90;;;;;;4978105;28;20198;-86
2022/01/15 03:52:54;;;;;;;146.50;36.15;;;-0.80;99.90;;;;;;4966563;28;20291;-85
2022/01/15 03:55:20;;;;;;;202.50;41.35;;;-0.70;99.90;;;;;;4967314;28;20219;-84
2022/01/15 03:57:46;;;;;;;216.43;41.90;;;-0.80;99.90;;;;;;4968368;28;20212;-85
2022/01/15 04:00:21;;;;;;;169.73;39.07;;;-0.90;99.90;;;;;;4965603;28;20192;-85
2022/01/15 04:02:48;;;;;;;144.88;37.47;;;-1.00;99.90;;;;;;4955204;28;20180;-86
2022/01/15 04:05:14;;;;;;;130.13;36.33;;;;;;;;;;4965178;28;20215;-85
2022/01/15 04:07:40;;;;;;;182.75;40.33;;;-1.00;99.90;;;;;;4965953;28;20188;-86
2022/01/15 04:10:09;;;;;;;304.87;51.60;;;-0.80;99.90;;;;;;4975817;28;20218;-86
2022/01/15 04:12:34;;;;;;;282.80;51.25;;;;;;;;;;4979930;28;20439;-86
2022/01/15 04:15:01;;;;;;;140.03;36.37;;;-0.70;99.90;;;;;;4966745;28;20222;-85
2022/01/15 04:17:27;;;;;;;215.63;38.75;;;;;;;;;;4966598;28;20570;-87
2022/01/15 04:19:53;;;;;;;133.60;33.92;;;;;;;;;;4963802;28;20180;-86
2022/01/15 04:22:19;;;;;;;219.05;39.50;;;;;;;;;;4964682;28;20191;-86
2022/01/15 04:24:45;;;;;;;186.77;39.73;;;;;;;;;;4967128;28;20591;-87
2022/01/15 04:27:11;;;;;;;200.95;42.08;;;;;;;;;;4965631;28;20439;-86
2022/01/15 04:29:37;;;;;;;370.13;51.67;;;;;;;;;;4966835;28;20183;-85
2022/01/15 04:32:04;;;;;;;178.35;35.50;;;-0.70;99.90;;;;;;4963914;28;20275;-87
2022/01/15 04:34:30;;;;;;;374.60;45.92;;;-0.80;99.90;;;;;;4967346;28;20212;-83
2022/01/15 04:37:13;;;;;;;168.43;34.25;;;-0.80;99.90;;;;;;4971041;28;20601;-86
2022/01/15 04:39:40;;;;;;;341.85;46.17;;;;;;;;;;4963562;28;20184;-83
2022/01/15 04:42:06;;;;;;;253.77;37.78;;;-0.90;99.90;;;;;;4963497;28;20183;-83
2022/01/15 04:44:32;;;;;;;135.40;29.10;;;;;;;;;;4963755;28;20209;-85
2022/01/15 04:46:59;;;;;;;211.30;34.88;;;-1.00;99.90;;;;;;4963440;28;20194;-86
2022/01/15 04:49:25;;;;;;;244.70;38.22;;;;;;;;;;4962053;28;20191;-86
2022/01/15 04:51:51;;;;;;;376.23;45.65;;;;;;;;;;4967991;28;20253;-85
2022/01/15 04:54:17;;;;;;;300.37;39.97;;;;;;;;;;4963836;28;20207;-85
2022/01/15 04:56:43;;;;;;;128.03;27.60;;;;;;;;;;4963487;28;21919;-86
2022/01/15 04:59:10;;;;;;;221.50;33.70;;;;;;;;;;4974718;28;20470;-87
2022/01/15 05:01:36;;;;;;;249.10;39.00;;;;;;;;;;4962563;28;20187;-87
2022/01/15 05:04:02;;;;;;;289.38;36.20;;;-0.70;99.90;;;;;;4957688;28;20200;-86
2022/01/15 05:06:27;;;;;;;277.13;38.67;;;;;;;;;;4960150;28;20202;-86
2022/01/15 05:09:03;;;;;;;222.17;34.47;;;;;;;;;;4962909;28;20191;-86
2022/01/15 05:11:33;;;;;;;212.57;32.55;;;;;;;;;;4960238;28;20454;-86
2022/01/15 05:13:59;;;;;;;226.73;36.00;;;;;;;;;;4962795;28;20208;-85
2022/01/15 05:16:24;;;;;;;172.33;29.10;;;;;;;;;;4957878;28;20206;-86
2022/01/15 05:18:50;;;;;;;205.33;34.43;;;;;;;;;;4962375;28;20581;-85
2022/01/15 05:21:16;;;;;;;181.83;30.33;;;-0.60;99.90;;;;;;4962028;28;20661;-86
2022/01/15 05:23:42;;;;;;;282.73;38.20;;;;;;;;;;4975663;28;20527;-86
2022/01/15 05:26:10;;;;;;;200.30;35.37;;;;;;;;;;4962313;28;20186;-87
2022/01/15 05:28:35;;;;;;;412.33;50.25;;;-0.50;99.90;;;;;;4959793;28;20443;-86
2022/01/15 05:31:01;;;;;;;165.60;33.87;;;;;;;;;;4962856;28;20218;-88
2022/01/15 05:33:27;;;;;;;311.77;46.80;;;;;;;;;;4960375;28;20763;-85
2022/01/15 05:35:53;;;;;;;188.00;35.37;;;-0.50;99.90;;;;;;4954773;28;21456;-86
2022/01/15 05:38:19;;;;;;;139.10;33.73;;;;;;;;;;4952782;28;20463;-84
2022/01/15 05:40:45;;;;;;;186.60;33.80;;;;;;;;;;4953886;28;20184;-87
2022/01/15 05:43:11;;;;;;;199.32;35.42;;;;;;;;;;4951646;28;20550;-86
2022/01/15 05:45:37;;;;;;;338.20;65.25;;;;;;;;;;4965905;28;20180;-87
2022/01/15 05:48:03;;;;;;;190.37;31.53;;;;;;;;;;4962314;28;20183;-86
2022/01/15 05:50:28;;;;;;;277.50;44.53;;;-0.60;99.90;;;;;;4969848;28;20435;-86
2022/01/15 05:52:54;;;;;;;303.20;41.80;;;;;;;;;;4974729;28;20731;-87
2022/01/15 05:55:20;;;;;;;485.90;97.73;;;;;;;;;;4966273;28;20200;-86
2022/01/15 05:57:46;;;;;;;239.73;44.53;;;;;;;;;;4968422;28;20480;-85
2022/01/15 06:00:12;;;;;;;137.93;26.97;;;-0.90;99.90;;;;;;4980420;28;20459;-85
2022/01/15 06:02:37;;;;;;;197.37;29.60;;;-0.80;99.90;;;;;;4978012;28;20439;-86
2022/01/15 06:05:03;;;;;;;210.77;50.77;;;-0.70;99.90;;;;;;4966105;28;20528;-88
2022/01/15 06:07:29;;;;;;;336.98;46.03;;;;;;;;;;4961325;28;20291;-87
2022/01/15 06:09:55;;;;;;;488.33;63.73;;;;;;;;;;4971194;28;20293;-86
2022/01/15 06:12:28;;;;;;;343.93;56.00;;;-0.80;99.90;;;;;;4962447;28;20475;-86
2022/01/15 06:14:54;;;;;;;250.63;36.17;;;;;;;;;;4958932;28;21019;-86
2022/01/15 06:17:19;;;;;;;394.50;47.53;;;-0.70;99.90;;;;;;4953469;28;20337;-86
2022/01/15 06:19:45;;;;;;;327.27;40.47;;;;;;;;;;4956435;28;20715;-86
2022/01/15 06:22:11;;;;;;;212.77;39.60;;;-0.60;99.90;;;;;;4960727;28;20188;-87
2022/01/15 06:24:36;;;;;;;293.97;45.93;;;-0.50;99.90;;;;;;4957041;28;20987;-86
2022/01/15 06:27:02;;;;;;;281.30;39.90;;;-0.60;99.90;;;;;;4957842;28;20187;-86
2022/01/15 06:29:28;;;;;;;188.68;32.80;;;;;;;;;;4958346;28;20188;-86
2022/01/15 06:31:54;;;;;;;109.83;27.00;;;-0.50;99.90;;;;;;4956833;28;20191;-87
2022/01/15 06:34:20;;;;;;;200.60;33.37;;;-0.40;99.90;;;;;;4954472;28;20462;-84
2022/01/15 06:36:46;;;;;;;325.98;38.80;;;-0.50;99.90;;;;;;4958673;28;20187;-85
2022/01/15 06:39:12;;;;;;;296.88;42.75;;;-0.60;99.90;;;;;;4953167;28;20334;-85
2022/01/15 06:41:38;;;;;;;138.77;27.90;;;;;;;;;;4954389;28;20271;-87
2022/01/15 06:44:03;;;;;;;177.32;30.05;;;-0.70;99.90;;;;;;4955587;28;20203;-85
2022/01/15 06:46:29;;;;;;;128.97;27.33;;;;;;;;;;4950294;28;20215;-87
2022/01/15 06:48:55;;;;;;;166.90;32.90;;;;;;;;;;4957560;28;20543;-87
2022/01/15 06:51:21;;;;;;;252.53;36.70;;;;;;;;;;4949076;28;20183;-88
2022/01/15 06:53:47;;;;;;;367.85;46.45;;;;;;;;;;4955091;28;20546;-86
2022/01/15 06:56:13;;;;;;;323.55;41.10;;;;;;;;;;4955563;28;20180;-87
2022/01/15 06:58:39;;;;;;;156.67;30.20;;;-0.50;99.90;;;;;;4957020;28;20212;-87
2022/01/15 07:01:05;;;;;;;114.17;27.23;;;;;;;;;;4958661;28;20489;-85
2022/01/15 07:03:31;;;;;;;189.07;30.17;;;;;;;;;;4958447;28;20459;-86
2022/01/15 07:05:57;;;;;;;202.18;31.92;;;;;;;;;;4956355;28;20919;-86
2022/01/15 07:08:22;;;;;;;177.90;30.03;;;-0.40;99.90;;;;;;4959781;28;20188;-88
2022/01/15 07:10:48;;;;;;;201.97;32.17;;;;;;;;;;4957462;28;20451;-86
2022/01/15 07:13:14;;;;;;;144.07;31.77;;;-0.40;99.90;;;;;;4951193;28;20672;-87
2022/01/15 07:15:40;;;;;;;302.03;36.83;;;;;;;;;;4958996;28;20214;-87
2022/01/15 07:18:06;;;;;;;189.33;32.27;;;-0.40;99.90;;;;;;4957320;28;20214;-87
2022/01/15 07:20:32;;;;;;;262.07;37.07;;;;;;;;;;4959919;28;20439;-86
2022/01/15 07:22:59;;;;;;;115.38;27.02;;;-0.30;99.90;;;;;;4976435;28;20195;-85
2022/01/15 07:25:25;;;;;;;247.85;35.78;;;;;;;;;;4965575;28;20253;-87
2022/01/15 07:27:50;;;;;;;220.68;33.13;;;-0.30;99.90;;;;;;4958881;28;20184;-87
2022/01/15 07:30:16;;;;;;;204.63;36.20;;;;;;;;;;4958485;28;20227;-86
2022/01/15 07:32:43;;;;;;;160.57;26.87;;;;;;;;;;4959808;28;20187;-86
2022/01/15 07:35:10;;;;;;;225.60;33.22;;;-0.50;99.90;;;;;;4951199;28;21030;-87
2022/01/15 07:37:36;;;;;;;262.80;32.78;;;-0.50;99.90;;;;;;4960346;28;20220;-86
2022/01/15 07:40:06;;;;;;;205.95;32.85;;;-0.50;99.90;;;;;;4954556;28;20327;-85
2022/01/15 07:42:36;;;;;;;241.13;31.60;;;;;;;;;;4955353;28;20184;-85
2022/01/15 07:45:06;;;;;;;181.88;29.60;;;-0.60;99.90;;;;;;4953290;28;20203;-85
2022/01/15 07:47:31;;;;;;;141.00;28.63;;;-0.70;99.90;;;;;;4954261;28;20180;-84
2022/01/15 07:49:58;;;;;;;291.73;32.20;;;-0.60;99.90;;;;;;4949797;28;20191;-86
2022/01/15 07:52:23;;;;;;;231.50;27.67;;;;;;;;;;4953037;28;20271;-83
2022/01/15 07:54:49;;;;;;;129.67;22.93;;;-0.70;99.90;;;;;;4958169;28;20298;-86
2022/01/15 07:57:15;;;;;;;180.17;28.47;;;;;;;;;;4950985;28;20477;-83
2022/01/15 07:59:40;;;;;;;189.10;27.87;;;-0.80;99.90;;;;;;4953666;28;20215;-86
2022/01/15 08:02:07;;;;;;;234.00;31.50;;;-0.90;99.90;;;;;;4952438;28;20507;-85
2022/01/15 08:04:32;;;;;;;281.98;33.20;;;-0.90;99.90;;;;;;4949486;28;20216;-84
2022/01/15 08:06:58;;;;;;;299.93;35.87;;;-0.90;99.90;;;;;;4951442;28;20181;-85
2022/01/15 08:09:23;;;;;;;282.93;34.03;;;-0.90;99.90;;;;;;4956684;28;20210;-86
2022/01/15 08:11:49;;;;;;;341.83;36.90;;;-0.90;99.90;;;;;;4955877;28;20180;-85
2022/01/15 08:14:15;;;;;;;365.80;43.87;;;;;;;;;;4961553;28;20208;-85
2022/01/15 08:16:40;;;;;;;153.85;25.42;;;-0.70;99.90;;;;;;4953842;28;20187;-86
2022/01/15 08:19:06;;;;;;;257.80;31.30;;;;;;;;;;4956235;28;20745;-87
2022/01/15 08:21:32;;;;;;;326.87;39.13;;;;;;;;;;4955464;28;20184;-87
2022/01/15 08:23:58;;;;;;;144.57;23.07;;;;;;;;;;4950794;28;20550;-88
2022/01/15 08:26:24;;;;;;;132.25;25.85;;;-0.40;99.90;;;;;;4953583;28;20451;-85
2022/01/15 08:28:50;;;;;;;209.00;30.00;;;;;;;;;;4954616;28;20195;-87
2022/01/15 08:31:16;;;;;;;238.87;31.03;;;;;;;;;;4952457;28;20283;-85
2022/01/15 08:33:42;;;;;;;188.80;29.02;;;;;;;;;;4946223;28;20492;-85
2022/01/15 08:36:09;;;;;;;246.93;33.97;;;;;;;;;;4953631;28;20190;-85
2022/01/15 08:38:35;;;;;;;149.60;25.65;;;;;;;;;;4952155;28;20257;-86
2022/01/15 08:41:01;;;;;;;237.18;31.15;;;;;;;;;;4950367;28;20747;-87
2022/01/15 08:43:27;;;;;;;296.40;36.28;;;0.10;99.90;;;;;;4955754;28;20255;-86
2022/01/15 08:45:53;;;;;;;175.80;29.10;;;;;;;;;;4955833;28;20984;-89
2022/01/15 08:48:19;;;;;;;137.17;26.90;;;0.10;99.90;;;;;;4955816;28;20188;-87
2022/01/15 08:50:48;;;;;;;105.57;23.52;;;0.00;99.90;;;;;;4957728;28;20450;-87
2022/01/15 08:53:17;;;;;;;280.33;38.28;;;0.20;99.90;;;;;;4956776;28;20188;-88
2022/01/15 08:55:45;;;;;;;162.00;25.23;;;0.20;99.90;;;;;;4956912;28;20307;-87
2022/01/15 08:58:11;;;;;;;268.55;35.25;;;;;;;;;;4961556;28;21020;-88
2022/01/15 09:00:37;;;;;;;237.63;33.43;;;;;;;;;;4962188;28;20198;-87
2022/01/15 09:03:04;;;;;;;242.65;33.83;;;0.40;99.90;;;;;;4963182;28;20439;-88
2022/01/15 09:05:32;;;;;;;115.40;26.90;;;;;;;;;;4964583;28;20597;-88
2022/01/15 09:07:58;;;;;;;120.57;24.30;;;;;;;;;;4965943;28;20279;-87
2022/01/15 09:10:24;;;;;;;130.23;27.00;;;;;;;;;;4958078;28;20283;-85
2022/01/15 09:12:49;;;;;;;299.83;46.97;;;;;;;;;;4983121;28;20438;-86
2022/01/15 09:15:16;;;;;;;151.50;34.57;;;;;;;;;;4958658;28;21399;-88
2022/01/15 09:17:42;;;;;;;289.95;58.88;;;0.50;99.90;;;;;;4959443;28;20477;-87
2022/01/15 09:20:08;;;;;;;152.33;35.30;;;0.40;99.90;;;;;;4958722;28;20183;-89
2022/01/15 09:22:34;;;;;;;277.88;36.90;;;0.50;99.90;;;;;;4953473;28;20306;-87
2022/01/15 09:25:00;;;;;;;276.40;37.30;;;;;;;;;;4961495;28;21239;-88
2022/01/15 09:30:15;;;;;;;176.32;30.90;;;0.70;99.90;;;;;;4968243;28;20936;-88
2022/01/15 09:32:44;;;;;;;349.77;45.13;;;0.70;99.90;;;;;;4967989;28;21089;-89
2022/01/15 09:35:10;;;;;;;289.58;41.83;;;0.70;99.90;;;;;;4966849;28;20581;-87
2022/01/15 09:37:36;;;;;;;123.07;26.40;;;;;;;;;;4952960;28;20311;-89
2022/01/15 09:40:04;;;;;;;166.43;29.92;;;0.90;99.90;;;;;;4965738;28;20262;-88
2022/01/15 09:42:29;;;;;;;227.32;38.60;;;1.00;99.90;;;;;;4961935;28;20184;-88
2022/01/15 09:44:55;;;;;;;328.87;40.27;;;1.10;99.90;;;;;;4993249;28;20196;-88
2022/01/15 09:47:22;;;;;;;188.73;33.90;;;1.00;99.90;;;;;;4963947;28;20218;-89
2022/01/15 09:49:49;;;;;;;313.70;44.10;;;1.00;99.90;;;;;;4963583;28;20245;-89
2022/01/15 09:52:16;;;;;;;282.27;40.90;;;1.00;99.90;;;;;;4951177;28;20195;-88
2022/01/15 09:54:42;;;;;;;157.65;29.88;;;0.80;99.90;;;;;;4965261;28;20235;-88
2022/01/15 09:57:08;;;;;;;165.57;34.67;;;0.90;99.90;;;;;;4961538;28;20211;-89
2022/01/15 09:59:36;;;;;;;210.57;39.70;;;0.90;99.90;;;;;;4972846;28;20699;-89
2022/01/15 10:02:04;;;;;;;135.23;29.17;;;0.90;99.90;;;;;;4979801;28;20435;-87
2022/01/15 10:04:32;;;;;;;254.07;37.35;;;0.90;99.90;;;;;;4965510;28;20204;-88
2022/01/15 10:07:13;;;;;;;148.30;30.58;;;0.90;99.90;;;;;;4962119;28;20292;-87
2022/01/15 10:09:41;;;;;;;207.95;31.88;;;0.90;99.90;;;;;;4977089;28;20228;-86
2022/01/15 10:12:08;;;;;;;227.90;34.60;;;;;;;;;;4972867;28;20240;-88
2022/01/15 10:14:36;;;;;;;175.02;32.42;;;1.00;99.90;;;;;;4953052;28;20577;-89
2022/01/15 10:17:19;;;;;;;113.60;26.35;;;1.10;99.90;;;;;;4965132;28;20719;-89
2022/01/15 10:19:44;;;;;;;139.05;30.50;;;1.30;99.90;;;;;;4956374;28;20212;-88
2022/01/15 10:22:16;;;;;;;266.17;36.70;;;1.30;99.90;;;;;;4961026;28;20187;-89
2022/01/15 10:24:50;;;;;;;182.95;36.92;;;1.30;99.90;;;;;;4963387;28;20582;-89
2022/01/15 10:27:38;;;;;;;163.85;36.03;;;1.30;99.90;;;;;;4961118;28;20198;-88
2022/01/15 10:30:09;;;;;;;238.70;40.78;;;1.30;99.90;;;;;;4964670;28;20560;-89
2022/01/15 10:32:41;;;;;;;191.68;36.50;;;1.50;99.90;;;;;;4962033;28;20215;-89
2022/01/15 10:35:16;;;;;;;169.60;36.05;;;1.50;99.90;;;;;;4965545;28;20327;-88
2022/01/15 10:37:53;;;;;;;137.27;33.65;;;1.60;99.90;;;;;;4950972;28;20219;-88
2022/01/15 10:40:22;;;;;;;259.40;41.95;;;1.70;99.90;;;;;;4966025;28;20211;-89
2022/01/15 10:43:06;;;;;;;273.50;42.47;;;1.70;99.90;;;;;;4952209;28;20255;-89
2022/01/15 10:45:34;;;;;;;248.20;43.22;;;1.50;99.90;;;;;;4959976;28;20573;-89
2022/01/15 10:48:02;;;;;;;207.98;39.03;;;1.30;99.90;;;;;;4963856;28;20180;-87
2022/01/15 10:50:31;;;;;;;199.23;37.92;;;1.50;99.90;;;;;;4962579;28;20183;-89
2022/01/15 10:53:03;;;;;;;223.55;44.47;;;1.70;99.90;;;;;;4960853;28;20176;-88
2022/01/15 10:55:32;;;;;;;111.22;33.80;;;1.70;99.90;;;;;;4963123;28;20315;-89
2022/01/15 10:58:00;;;;;;;178.90;37.67;;;1.80;99.90;;;;;;4958389;28;20239;-89
2022/01/15 11:00:28;;;;;;;194.05;38.17;;;2.00;99.90;;;;;;4954330;28;20188;-89
2022/01/15 11:02:58;;;;;;;181.15;40.47;;;2.20;99.90;;;;;;4966721;28;20215;-90
2022/01/15 11:05:28;;;;;;;121.13;33.40;;;2.30;99.90;;;;;;4960001;28;20324;-89
2022/01/15 11:08:02;;;;;;;100.13;30.73;;;2.40;99.90;;;;;;4963446;28;21318;-89
2022/01/15 11:10:35;;;;;;;120.00;32.92;;;2.30;99.90;;;;;;4963674;28;20195;-89
2022/01/15 11:13:04;;;;;;;78.90;28.48;;;2.20;99.90;;;;;;4957690;28;20252;-88
2022/01/15 11:15:30;;;;;;;176.02;37.10;;;2.30;99.90;;;;;;4979146;28;20210;-89
2022/01/15 11:17:56;;;;;;;143.43;34.27;;;;;;;;;;4960186;28;20223;-88
2022/01/15 11:20:23;;;;;;;90.07;29.77;;;2.30;99.90;;;;;;4956887;28;20183;-87
2022/01/15 11:22:49;;;;;;;68.70;28.25;;;;;;;;;;4962327;28;20238;-89
2022/01/15 11:25:15;;;;;;;71.45;30.08;;;1.90;99.90;;;;;;4960047;28;20665;-88
2022/01/15 11:27:41;;;;;;;79.40;32.37;;;;;;;;;;4952936;28;20671;-87
2022/01/15 11:30:07;;;;;;;85.77;34.00;;;2.20;99.90;;;;;;4953985;28;20550;-90
2022/01/15 11:32:33;;;;;;;61.95;30.80;;;2.40;99.90;;;;;;4961230;28;20500;-90
2022/01/15 11:35:09;;;;;;;64.07;29.52;;;5.20;99.90;;;;;;4975051;28;20230;-88
2022/01/15 11:37:49;;;;;;;84.20;30.08;;;2.60;99.90;;;;;;4953102;28;20264;-88
2022/01/15 11:40:39;;;;;;;93.47;33.15;;;2.70;99.90;;;;;;4953538;28;20274;-89
2022/01/15 11:43:24;;;;;;;60.05;28.75;;;2.70;99.90;;;;;;4956940;28;20184;-89
2022/01/15 11:45:50;;;;;;;69.65;30.23;;;2.80;99.90;;;;;;4962346;28;20250;-87
2022/01/15 11:48:25;;;;;;;71.75;27.33;;;2.90;99.90;;;;;;4956965;28;20190;-88
2022/01/15 11:51:17;;;;;;;61.60;31.10;;;2.90;99.90;;;;;;4975558;28;20180;-88
2022/01/15 11:53:58;;;;;;;51.22;26.83;;;2.70;99.90;;;;;;4956598;28;20212;-88
2022/01/15 11:56:29;;;;;;;64.75;29.30;;;2.60;99.90;;;;;;4959431;28;20321;-89
2022/01/15 11:59:17;;;;;;;57.08;27.10;;;2.60;99.90;;;;;;4949768;28;20216;-88
2022/01/15 12:01:43;;;;;;;62.08;30.33;;;3.10;99.90;;;;;;4962039;28;20192;-90
2022/01/15 12:04:30;;;;;;;56.53;29.43;;;3.00;99.90;;;;;;4965146;28;20204;-89
2022/01/15 12:07:05;;;;;;;70.18;30.42;;;3.00;99.90;;;;;;4982644;28;20207;-86
2022/01/15 12:09:39;;;;;;;56.70;27.25;;;3.10;99.90;;;;;;4965025;28;20227;-88
2022/01/15 12:12:20;;;;;;;56.67;29.30;;;2.80;99.90;;;;;;4964260;28;20320;-87
2022/01/15 12:15:00;;;;;;;57.97;30.65;;;2.80;99.90;;;;;;4971029;28;20211;-88
2022/01/15 12:17:38;;;;;;;74.45;32.67;;;2.90;99.90;;;;;;4972652;28;20187;-90
2022/01/15 12:20:25;;;;;;;63.13;27.92;;;3.00;99.90;;;;;;4962915;28;20171;-88
2022/01/15 12:23:21;;;;;;;60.25;28.67;;;3.00;99.90;;;;;;4962967;28;20188;-90
2022/01/15 12:25:49;;;;;;;61.45;28.88;;;3.20;99.90;;;;;;4964515;28;20180;-88
2022/01/15 12:28:15;;;;;;;58.08;28.83;;;3.10;99.90;;;;;;4958656;28;20180;-88
2022/01/15 12:30:46;;;;;;;69.05;35.60;;;3.20;99.90;;;;;;4979021;28;20223;-89
2022/01/15 12:33:13;;;;;;;72.85;33.40;;;3.00;99.90;;;;;;4953916;28;20655;-90
2022/01/15 12:35:41;;;;;;;58.35;29.13;;;3.10;99.90;;;;;;4949718;28;20302;-87
2022/01/15 12:38:16;;;;;;;65.88;29.50;;;3.20;99.90;;;;;;4975420;28;20607;-89
2022/01/15 12:40:52;;;;;;;68.32;32.25;;;3.20;99.90;;;;;;4962129;28;20175;-88
2022/01/15 12:43:18;;;;;;;60.55;31.98;;;3.00;99.90;;;;;;4965788;28;20207;-87
2022/01/15 12:45:49;;;;;;;59.58;30.80;;;2.90;99.90;;;;;;4951134;28;20183;-89
2022/01/15 12:48:17;;;;;;;65.05;31.90;;;2.80;99.90;;;;;;4953807;28;20279;-87
2022/01/15 12:50:46;;;;;;;59.10;29.52;;;2.80;99.90;;;;;;4955347;28;20665;-90
2022/01/15 12:53:12;;;;;;;61.70;31.38;;;3.00;99.90;;;;;;4950747;28;20183;-89
2022/01/15 12:55:39;;;;;;;72.03;32.15;;;3.30;99.90;;;;;;4953211;28;20195;-90
2022/01/15 12:58:13;;;;;;;68.05;31.23;;;3.30;99.90;;;;;;4945960;28;20294;-87
2022/01/15 13:00:39;;;;;;;63.53;30.63;;;3.50;99.90;;;;;;4955580;28;20267;-90
2022/01/15 13:03:10;;;;;;;64.83;31.20;;;3.30;99.90;;;;;;4958502;28;20267;-88
2022/01/15 13:05:39;;;;;;;69.82;30.30;;;3.30;99.90;;;;;;4961198;28;20204;-90
2022/01/15 13:08:15;;;;;;;62.22;30.25;;;3.30;99.90;;;;;;4976179;28;20186;-88
2022/01/15 13:10:49;;;;;;;68.70;31.52;;;3.20;99.90;;;;;;4962395;28;20717;-89
2022/01/15 13:13:21;;;;;;;59.00;28.38;;;3.50;99.90;;;;;;4971492;28;20187;-89
2022/01/15 13:15:48;;;;;;;59.45;30.23;;;3.50;99.90;;;;;;4965066;28;20664;-91
2022/01/15 13:18:17;;;;;;;65.65;29.95;;;3.60;99.90;;;;;;4963025;28;20424;-90
2022/01/15 13:20:44;;;;;;;58.35;26.90;;;3.80;99.90;;;;;;4968650;28;21310;-90